Observation data for Amherst on 05/24/2020      Previous  Date  Next       Current Mesonet Observations  Soil Data  Daily Summary Page  Observations in Plain Language
KAMH 240500Z 15012G17KT 20/11 A2985 RMK A01 T01970112  RH  060%=      5-min Rain = 0
KAMH 240505Z 15013KT 20/11 A2985 RMK A01 T02000112  RH  059%=      5-min Rain = 0
KAMH 240510Z 16011G16KT 20/11 A2985 RMK A01 T01990111  RH  059%=      5-min Rain = 0
KAMH 240515Z 15013KT 20/11 A2985 RMK A01 T01990112  RH  059%=      5-min Rain = 0
KAMH 240520Z 15012KT 20/11 A2985 RMK A01 T01990113  RH  060%=      5-min Rain = 0
KAMH 240525Z 15013KT 20/12 A2985 RMK A01 T02000115  RH  060%=      5-min Rain = 0
KAMH 240530Z 15013G18KT 20/12 A2986 RMK A01 T02000117  RH  061%=      5-min Rain = 0
KAMH 240535Z 15013G19KT 20/12 A2986 RMK A01 T02000121  RH  062%=      5-min Rain = 0
KAMH 240540Z 15015G21KT 20/12 A2986 RMK A01 T02010124  RH  063%=      5-min Rain = 0
KAMH 240545Z 15016KT 20/13 A2986 RMK A01 T02010127  RH  065%=      5-min Rain = 0
KAMH 240550Z 15015KT 20/13 A2986 RMK A01 T02000128  RH  066%=      5-min Rain = 0
KAMH 240555Z 15017KT 20/13 A2986 RMK A01 T02000129  RH  066%=      5-min Rain = 0
KAMH 240600Z 15017G22KT 20/13 A2986 RMK A01 T01990129  RH  067%=      5-min Rain = 0
KAMH 240605Z 16018KT 20/13 A2986 RMK A01 T01980130  RH  067%=      5-min Rain = 0
KAMH 240610Z 16017KT 20/13 A2986 RMK A01 T01960129  RH  068%=      5-min Rain = 0
KAMH 240615Z 16016G21KT 19/13 A2986 RMK A01 T01940129  RH  069%=      5-min Rain = 0
KAMH 240620Z 16018KT 19/13 A2986 RMK A01 T01920128  RH  069%=      5-min Rain = 0
KAMH 240625Z 16017G22KT 19/13 A2986 RMK A01 T01920127  RH  069%=      5-min Rain = 0
KAMH 240630Z 16017G22KT 19/13 A2986 RMK A01 T01900127  RH  069%=      5-min Rain = 0
KAMH 240635Z 16017G23KT 19/13 A2986 RMK A01 T01890126  RH  070%=      5-min Rain = 0
KAMH 240640Z 16017G23KT 19/13 A2986 RMK A01 T01870125  RH  070%=      5-min Rain = 0
KAMH 240645Z 16017KT 19/13 A2986 RMK A01 T01860125  RH  070%=      5-min Rain = 0
KAMH 240650Z 16016G22KT 19/13 A2986 RMK A01 T01850125  RH  071%=      5-min Rain = 0
KAMH 240655Z 16016G21KT 18/13 A2986 RMK A01 T01840125  RH  071%=      5-min Rain = 0
KAMH 240700Z 16016KT 18/13 A2986 RMK A01 T01830125  RH  071%=      5-min Rain = 0
KAMH 240705Z 17014KT 18/13 A2986 RMK A01 T01820125  RH  072%=      5-min Rain = 0
KAMH 240710Z 17016G23KT 18/13 A2986 RMK A01 T01820125  RH  072%=      5-min Rain = 0
KAMH 240715Z 17015G20KT 18/13 A2986 RMK A01 T01810125  RH  072%=      5-min Rain = 0
KAMH 240720Z 17015KT 18/13 A2986 RMK A01 T01810125  RH  072%=      5-min Rain = 0
KAMH 240725Z 16015KT 18/12 A2986 RMK A01 T01800124  RH  073%=      5-min Rain = 0
KAMH 240730Z 16014KT 18/12 A2986 RMK A01 T01790124  RH  073%=      5-min Rain = 0
KAMH 240735Z 16014G19KT 18/12 A2986 RMK A01 T01780123  RH  073%=      5-min Rain = 0
KAMH 240740Z 16016G21KT 18/12 A2986 RMK A01 T01780123  RH  073%=      5-min Rain = 0
KAMH 240745Z 16014KT 18/12 A2987 RMK A01 T01770123  RH  073%=      5-min Rain = 0
KAMH 240750Z 17014KT 18/12 A2987 RMK A01 T01760122  RH  074%=      5-min Rain = 0
KAMH 240755Z 16013KT 17/12 A2986 RMK A01 T01740121  RH  074%=      5-min Rain = 0
KAMH 240800Z 17015KT 17/12 A2986 RMK A01 T01740120  RH  073%=      5-min Rain = 0
KAMH 240805Z 17015KT 17/12 A2986 RMK A01 T01730120  RH  073%=      5-min Rain = 0
KAMH 240810Z 17013G18KT 17/12 A2986 RMK A01 T01710119  RH  074%=      5-min Rain = 0
KAMH 240815Z 16014KT 17/12 A2986 RMK A01 T01700118  RH  074%=      5-min Rain = 0
KAMH 240820Z 16014G19KT 17/12 A2986 RMK A01 T01700117  RH  073%=      5-min Rain = 0
KAMH 240825Z 16013G18KT 17/12 A2986 RMK A01 T01690116  RH  073%=      5-min Rain = 0
KAMH 240830Z 16013G19KT 17/12 A2986 RMK A01 T01680115  RH  074%=      5-min Rain = 0
KAMH 240835Z 17012G18KT 17/11 A2986 RMK A01 T01670113  RH  073%=      5-min Rain = 0
KAMH 240840Z 17014KT 17/11 A2986 RMK A01 T01660114  RH  074%=      5-min Rain = 0
KAMH 240845Z 17013KT 17/11 A2986 RMK A01 T01660112  RH  073%=      5-min Rain = 0
KAMH 240850Z 17012KT 16/11 A2986 RMK A01 T01630112  RH  074%=      5-min Rain = 0
KAMH 240855Z 17013KT 16/11 A2986 RMK A01 T01620112  RH  075%=      5-min Rain = 0
KAMH 240900Z 17013KT 16/11 A2986 RMK A01 T01630112  RH  074%=      5-min Rain = 0
KAMH 240905Z 17013KT 16/11 A2986 RMK A01 T01630111  RH  074%=      5-min Rain = 0
KAMH 240910Z 17013KT 16/11 A2986 RMK A01 T01620111  RH  074%=      5-min Rain = 0
KAMH 240915Z 17012KT 16/11 A2986 RMK A01 T01610110  RH  074%=      5-min Rain = 0
KAMH 240920Z 17011KT 16/11 A2986 RMK A01 T01600109  RH  075%=      5-min Rain = 0
KAMH 240925Z 17010KT 16/11 A2986 RMK A01 T01580109  RH  075%=      5-min Rain = 0
KAMH 240930Z 17011KT 16/11 A2986 RMK A01 T01570108  RH  076%=      5-min Rain = 0
KAMH 240935Z 17011KT 16/11 A2986 RMK A01 T01560108  RH  076%=      5-min Rain = 0
KAMH 240940Z 17011KT 16/11 A2986 RMK A01 T01560108  RH  076%=      5-min Rain = 0
KAMH 240945Z 17011KT 16/11 A2986 RMK A01 T01550108  RH  076%=      5-min Rain = 0
KAMH 240950Z 16010KT 15/11 A2986 RMK A01 T01540108  RH  077%=      5-min Rain = 0
KAMH 240955Z 17010KT 15/11 A2986 RMK A01 T01520107  RH  077%=      5-min Rain = 0
KAMH 241000Z 17010KT 15/11 A2986 RMK A01 T01510107  RH  077%=      5-min Rain = 0
KAMH 241005Z 16010KT 15/11 A2986 RMK A01 T01500107  RH  078%=      5-min Rain = 0
KAMH 241010Z 16009KT 15/11 A2986 RMK A01 T01490106  RH  078%=      5-min Rain = 0
KAMH 241015Z 16009KT 15/11 A2986 RMK A01 T01480106  RH  079%=      5-min Rain = 0
KAMH 241020Z 16009KT 15/11 A2987 RMK A01 T01460106  RH  079%=      5-min Rain = 0
KAMH 241025Z 16010KT 15/11 A2987 RMK A01 T01460106  RH  080%=      5-min Rain = 0
KAMH 241030Z 16009KT 14/11 A2987 RMK A01 T01440105  RH  080%=      5-min Rain = 0
KAMH 241035Z 16008KT 14/11 A2987 RMK A01 T01430105  RH  081%=      5-min Rain = 0
KAMH 241040Z 17009KT 14/11 A2987 RMK A01 T01440106  RH  081%=      5-min Rain = 0
KAMH 241045Z 17008KT 14/11 A2987 RMK A01 T01430105  RH  081%=      5-min Rain = 0
KAMH 241050Z 17008KT 14/11 A2987 RMK A01 T01420105  RH  081%=      5-min Rain = 0
KAMH 241055Z 17007KT 14/11 A2987 RMK A01 T01420105  RH  081%=      5-min Rain = 0
KAMH 241100Z 17008KT 14/11 A2987 RMK A01 T01420105  RH  081%=      5-min Rain = 0
KAMH 241105Z 17008KT 14/11 A2987 RMK A01 T01410105  RH  082%=      5-min Rain = 0
KAMH 241110Z 17007KT 14/11 A2987 RMK A01 T01400105  RH  082%=      5-min Rain = 0
KAMH 241115Z 17008KT 14/11 A2987 RMK A01 T01390105  RH  083%=      5-min Rain = 0
KAMH 241120Z 17007KT 14/11 A2987 RMK A01 T01390105  RH  083%=      5-min Rain = 0
KAMH 241125Z 17008KT 14/10 A2987 RMK A01 T01370104  RH  083%=      5-min Rain = 0
KAMH 241130Z 17008KT 14/11 A2987 RMK A01 T01370105  RH  084%=      5-min Rain = 0
KAMH 241135Z 17007KT 14/11 A2987 RMK A01 T01370105  RH  084%=      5-min Rain = 0
KAMH 241140Z 18006KT 14/11 A2987 RMK A01 T01360105  RH  084%=      5-min Rain = 0
KAMH 241145Z 18007KT 14/11 A2987 RMK A01 T01370105  RH  084%=      5-min Rain = 0
KAMH 241150Z 19006KT 14/11 A2987 RMK A01 T01370105  RH  084%=      5-min Rain = 0
KAMH 241155Z 18005KT 14/10 A2987 RMK A01 T01370104  RH  083%=      5-min Rain = 0
KAMH 241200Z 18005KT 13/10 A2988 RMK A01 T01340103  RH  084%=      5-min Rain = 0
KAMH 241205Z 19005KT 14/10 A2988 RMK A01 T01350104  RH  084%=      5-min Rain = 0
KAMH 241210Z 18006KT 14/11 A2988 RMK A01 T01360105  RH  084%=      5-min Rain = 0
KAMH 241215Z 18006KT 14/10 A2988 RMK A01 T01370104  RH  083%=      5-min Rain = 0
KAMH 241220Z 18006KT 14/11 A2988 RMK A01 T01380105  RH  083%=      5-min Rain = 0
KAMH 241225Z 18006KT 14/11 A2988 RMK A01 T01410107  RH  083%=      5-min Rain = 0
KAMH 241230Z 18007KT 14/11 A2988 RMK A01 T01440108  RH  082%=      5-min Rain = 0
KAMH 241235Z 19007KT 15/11 A2988 RMK A01 T01460108  RH  081%=      5-min Rain = 0
KAMH 241240Z 19007KT 15/11 A2988 RMK A01 T01500110  RH  080%=      5-min Rain = 0
KAMH 241245Z 18007KT 15/11 A2988 RMK A01 T01540111  RH  078%=      5-min Rain = 0
KAMH 241250Z 19007KT 16/11 A2988 RMK A01 T01580113  RH  077%=      5-min Rain = 0
KAMH 241255Z 19008KT 16/11 A2988 RMK A01 T01600113  RH  076%=      5-min Rain = 0
KAMH 241300Z 19008KT 16/11 A2988 RMK A01 T01630114  RH  075%=      5-min Rain = 0
KAMH 241305Z 19008KT 17/12 A2988 RMK A01 T01660115  RH  074%=      5-min Rain = 0
KAMH 241310Z 20008KT 17/11 A2988 RMK A01 T01660114  RH  074%=      5-min Rain = 0
KAMH 241315Z 20009KT 17/11 A2988 RMK A01 T01660114  RH  074%=      5-min Rain = 0
KAMH 241320Z 19009KT 17/11 A2988 RMK A01 T01670114  RH  073%=      5-min Rain = 0
KAMH 241325Z 20009KT 17/11 A2987 RMK A01 T01680114  RH  073%=      5-min Rain = 0
KAMH 241330Z 20008KT 17/12 A2987 RMK A01 T01720116  RH  072%=      5-min Rain = 0
KAMH 241335Z 19010G16KT 18/12 A2987 RMK A01 T01780117  RH  070%=      5-min Rain = 0
KAMH 241340Z 19012G17KT 18/12 A2987 RMK A01 T01820116  RH  068%=      5-min Rain = 0
KAMH 241345Z 19011KT 19/12 A2987 RMK A01 T01880117  RH  066%=      5-min Rain = 0
KAMH 241350Z 19012KT 19/12 A2987 RMK A01 T01930117  RH  064%=      5-min Rain = 0
KAMH 241355Z 19012KT 19/12 A2987 RMK A01 T01930116  RH  063%=      5-min Rain = 0
KAMH 241400Z 19012KT 19/12 A2987 RMK A01 T01940117  RH  063%=      5-min Rain = 0
KAMH 241405Z 19013G18KT 20/12 A2987 RMK A01 T01980118  RH  062%=      5-min Rain = 0
KAMH 241410Z 19012G17KT 20/12 A2987 RMK A01 T01990118  RH  062%=      5-min Rain = 0
KAMH 241415Z 20012G17KT 20/12 A2986 RMK A01 T02010119  RH  061%=      5-min Rain = 0
KAMH 241420Z 19012G17KT 20/12 A2986 RMK A01 T02040119  RH  060%=      5-min Rain = 0
KAMH 241425Z 20014KT 21/12 A2986 RMK A01 T02090120  RH  059%=      5-min Rain = 0
KAMH 241430Z 20015G21KT 21/12 A2986 RMK A01 T02080120  RH  059%=      5-min Rain = 0
KAMH 241435Z 20015KT 21/12 A2986 RMK A01 T02130121  RH  058%=      5-min Rain = 0
KAMH 241440Z 20016KT 21/12 A2986 RMK A01 T02120121  RH  058%=      5-min Rain = 0
KAMH 241445Z 20015KT 21/12 A2986 RMK A01 T02130121  RH  058%=      5-min Rain = 0
KAMH 241450Z 21013G18KT 22/12 A2986 RMK A01 T02170122  RH  057%=      5-min Rain = 0
KAMH 241455Z 21014G19KT 22/12 A2986 RMK A01 T02180122  RH  056%=      5-min Rain = 0
KAMH 241500Z 20013G18KT 22/12 A2986 RMK A01 T02220123  RH  056%=      5-min Rain = 0
KAMH 241505Z 20014KT 22/12 A2986 RMK A01 T02240123  RH  055%=      5-min Rain = 0
KAMH 241510Z 21012G17KT 23/13 A2986 RMK A01 T02290125  RH  054%=      5-min Rain = 0
KAMH 241515Z 20013G18KT 23/13 A2986 RMK A01 T02310125  RH  053%=      5-min Rain = 0
KAMH 241520Z 19013G19KT 24/13 A2986 RMK A01 T02350126  RH  052%=      5-min Rain = 0
KAMH 241525Z 19013G21KT 24/13 A2986 RMK A01 T02410126  RH  051%=      5-min Rain = 0
KAMH 241530Z 19013KT 24/13 A2986 RMK A01 T02380125  RH  051%=      5-min Rain = 0
KAMH 241535Z 20013G19KT 24/13 A2986 RMK A01 T02400125  RH  050%=      5-min Rain = 0
KAMH 241540Z 20013KT 24/13 A2986 RMK A01 T02430125  RH  050%=      5-min Rain = 0
KAMH 241545Z 19013G18KT 24/13 A2986 RMK A01 T02420125  RH  050%=      5-min Rain = 0
KAMH 241550Z 20013KT 24/13 A2985 RMK A01 T02440125  RH  049%=      5-min Rain = 0
KAMH 241555Z 20011G17KT 25/13 A2985 RMK A01 T02530125  RH  047%=      5-min Rain = 0
KAMH 241600Z 19013KT 25/12 A2985 RMK A01 T02540123  RH  046%=      5-min Rain = 0
KAMH 241605Z 21010G16KT 25/12 A2985 RMK A01 T02540119  RH  045%=      5-min Rain = 0
KAMH 241610Z 20009KT 26/12 A2985 RMK A01 T02580120  RH  044%=      5-min Rain = 0
KAMH 241615Z 21011KT 26/12 A2985 RMK A01 T02600117  RH  042%=      5-min Rain = 0
KAMH 241620Z 20010G15KT 26/11 A2985 RMK A01 T02580114  RH  042%=      5-min Rain = 0
KAMH 241625Z 20010KT 26/11 A2985 RMK A01 T02610114  RH  041%=      5-min Rain = 0
KAMH 241630Z 20009KT 27/12 A2984 RMK A01 T02670118  RH  041%=      5-min Rain = 0
KAMH 241635Z 22009G15KT 27/11 A2984 RMK A01 T02740106  RH  036%=      5-min Rain = 0
KAMH 241640Z 21007KT 28/10 A2985 RMK A01 T02750103  RH  035%=      5-min Rain = 0
KAMH 241645Z 23009KT 28/11 A2985 RMK A01 T02770107  RH  036%=      5-min Rain = 0
KAMH 241650Z 23007KT 28/11 A2985 RMK A01 T02770107  RH  036%=      5-min Rain = 0
KAMH 241655Z 23008KT 28/11 A2985 RMK A01 T02790105  RH  035%=      5-min Rain = 0
KAMH 241700Z 24009KT 28/10 A2985 RMK A01 T02830101  RH  033%=      5-min Rain = 0
KAMH 241705Z 21009KT 29/09 A2985 RMK A01 T02870094  RH  031%=      5-min Rain = 0
KAMH 241710Z 19006KT 28/09 A2985 RMK A01 T02820092  RH  031%=      5-min Rain = 0
KAMH 241715Z 23008KT 29/09 A2985 RMK A01 T02870087  RH  029%=      5-min Rain = 0
KAMH 241720Z 23006G11KT 29/08 A2984 RMK A01 T02900080  RH  028%=      5-min Rain = 0
KAMH 241725Z 19005KT 29/09 A2984 RMK A01 T02910086  RH  029%=      5-min Rain = 0
KAMH 241730Z 25007G12KT 30/08 A2984 RMK A01 T02970081  RH  027%=      5-min Rain = 0
KAMH 241735Z 20007KT 29/08 A2984 RMK A01 T02920075  RH  026%=      5-min Rain = 0
KAMH 241740Z 22009KT 30/06 A2984 RMK A01 T02980058  RH  023%=      5-min Rain = 0
KAMH 241745Z 24007G12KT 30/04 A2984 RMK A01 T03000039  RH  019%=      5-min Rain = 0
KAMH 241750Z 19003KT 30/06 A2984 RMK A01 T02980056  RH  022%=      5-min Rain = 0
KAMH 241755Z 25005G11KT 30/06 A2983 RMK A01 T03010059  RH  022%=      5-min Rain = 0
KAMH 241800Z 23007G13KT 30/05 A2983 RMK A01 T03030054  RH  021%=      5-min Rain = 0
KAMH 241805Z 19007KT 31/03 A2983 RMK A01 T03070026  RH  017%=      5-min Rain = 0
KAMH 241810Z 16005KT 31/05 A2983 RMK A01 T03050046  RH  020%=      5-min Rain = 0
KAMH 241815Z 20002G9KT 30/05 A2983 RMK A01 T02980048  RH  021%=      5-min Rain = 0
KAMH 241820Z 24007G13KT 31/04 A2982 RMK A01 T03070039  RH  019%=      5-min Rain = 0
KAMH 241825Z 23004KT 31/03 A2982 RMK A01 T03100031  RH  017%=      5-min Rain = 0
KAMH 241830Z 21005G13KT 31/03 A2982 RMK A01 T03090025  RH  017%=      5-min Rain = 0
KAMH 241835Z 18008G15KT 31/02 A2982 RMK A01 T03130019  RH  016%=      5-min Rain = 0
KAMH 241840Z 21007G13KT 32/02 A2981 RMK A01 T03150020  RH  015%=      5-min Rain = 0
KAMH 241845Z 22009G15KT 32/02 A2981 RMK A01 T03180018  RH  015%=      5-min Rain = 0
KAMH 241850Z 21007KT 31/02 A2981 RMK A01 T03140019  RH  015%=      5-min Rain = 0
KAMH 241855Z 18003G10KT 32/03 A2981 RMK A01 T03170026  RH  016%=      5-min Rain = 0
KAMH 241900Z 22007G13KT 32/01 A2981 RMK A01 T03190009  RH  014%=      5-min Rain = 0
KAMH 241905Z 19004G11KT 32/01 A2981 RMK A01 T03190009  RH  014%=      5-min Rain = 0
KAMH 241910Z 23006G11KT 32/00 A298 RMK A01 T03220004  RH  013%=      5-min Rain = 0
KAMH 241915Z 16009G15KT 33/M00 A298 RMK A01 T03281003  RH  012%=      5-min Rain = 0
KAMH 241920Z 20012G29KT 33/01 A2979 RMK A01 T03310009  RH  013%=      5-min Rain = 0
KAMH 241925Z 22008G16KT 33/01 A298 RMK A01 T03260008  RH  013%=      5-min Rain = 0
KAMH 241930Z 14004KT 32/01 A2979 RMK A01 T03190006  RH  014%=      5-min Rain = 0
KAMH 241935Z 23010G17KT 33/00 A2979 RMK A01 T03260001  RH  013%=      5-min Rain = 0
KAMH 241940Z 24011G18KT 33/M01 A2979 RMK A01 T03301005  RH  012%=      5-min Rain = 0
KAMH 241945Z 21008G13KT 33/M00 A2979 RMK A01 T03271004  RH  012%=      5-min Rain = 0
KAMH 241950Z 21008KT 32/00 A2978 RMK A01 T03210000  RH  013%=      5-min Rain = 0
KAMH 241955Z 21006KT 33/M00 A2978 RMK A01 T03311001  RH  012%=      5-min Rain = 0
KAMH 242000Z 19009G17KT 34/M01 A2978 RMK A01 T03351006  RH  011%=      5-min Rain = 0
KAMH 242005Z 17011KT 34/M01 A2978 RMK A01 T03371012  RH  011%=      5-min Rain = 0
KAMH 242010Z 20011G17KT 34/M02 A2977 RMK A01 T03371015  RH  011%=      5-min Rain = 0
KAMH 242015Z 22009G14KT 33/M02 A2977 RMK A01 T03271023  RH  011%=      5-min Rain = 0
KAMH 242020Z 18008G15KT 33/M01 A2977 RMK A01 T03301011  RH  011%=      5-min Rain = 0
KAMH 242025Z 18009G16KT 34/M01 A2976 RMK A01 T03411006  RH  011%=      5-min Rain = 0
KAMH 242030Z 17009KT 34/M00 A2976 RMK A01 T03381003  RH  011%=      5-min Rain = 0
KAMH 242035Z 20010G21KT 33/M01 A2976 RMK A01 T03331006  RH  012%=      5-min Rain = 0
KAMH 242040Z 22011G16KT 33/M01 A2976 RMK A01 T03251011  RH  012%=      5-min Rain = 0
KAMH 242045Z 23008G13KT 32/M02 A2976 RMK A01 T03191016  RH  012%=      5-min Rain = 0
KAMH 242050Z 23010G16KT 32/M02 A2976 RMK A01 T03171020  RH  011%=      5-min Rain = 0
KAMH 242055Z 22010G16KT 31/M02 A2976 RMK A01 T03141018  RH  012%=      5-min Rain = 0
KAMH 242100Z 22006G11KT 31/M02 A2975 RMK A01 T03131016  RH  012%=      5-min Rain = 0
KAMH 242105Z 24008G14KT 31/M02 A2975 RMK A01 T03131017  RH  012%=      5-min Rain = 0
KAMH 242110Z 21008KT 31/M01 A2975 RMK A01 T03131013  RH  012%=      5-min Rain = 0
KAMH 242115Z 20005KT 32/M01 A2975 RMK A01 T03171011  RH  012%=      5-min Rain = 0
KAMH 242120Z 18004G9KT 31/00 A2975 RMK A01 T03140000  RH  014%=      5-min Rain = 0
KAMH 242125Z 13010G16KT 31/08 A2974 RMK A01 T03070083  RH  025%=      5-min Rain = 0
KAMH 242130Z 13012G17KT 30/09 A2974 RMK A01 T03000089  RH  028%=      5-min Rain = 0
KAMH 242135Z 13017G24KT 30/03 A2973 RMK A01 T02980032  RH  019%=      5-min Rain = 0
KAMH 242140Z 14017G25KT 30/01 A2973 RMK A01 T02950010  RH  016%=      5-min Rain = 0
KAMH 242145Z 13017G22KT 29/01 A2973 RMK A01 T02930013  RH  017%=      5-min Rain = 0
KAMH 242150Z 13015G22KT 29/01 A2973 RMK A01 T02910013  RH  017%=      5-min Rain = 0
KAMH 242155Z 14014KT 29/01 A2973 RMK A01 T02910008  RH  016%=      5-min Rain = 0
KAMH 242200Z 14012G18KT 29/01 A2972 RMK A01 T02910012  RH  017%=      5-min Rain = 0
KAMH 242205Z 14013KT 29/02 A2972 RMK A01 T02910015  RH  017%=      5-min Rain = 0
KAMH 242210Z 14011G16KT 29/03 A2972 RMK A01 T02910027  RH  019%=      5-min Rain = 0
KAMH 242215Z 14011KT 29/04 A2972 RMK A01 T02900041  RH  021%=      5-min Rain = 0
KAMH 242220Z 13010KT 29/06 A2971 RMK A01 T02890056  RH  023%=      5-min Rain = 0
KAMH 242225Z 13010KT 29/08 A297 RMK A01 T02880078  RH  027%=      5-min Rain = 0
KAMH 242230Z 14008KT 29/08 A297 RMK A01 T02870080  RH  028%=      5-min Rain = 0
KAMH 242235Z 14009KT 29/08 A297 RMK A01 T02860080  RH  028%=      5-min Rain = 0
KAMH 242240Z 15010KT 29/08 A297 RMK A01 T02850078  RH  028%=      5-min Rain = 0
KAMH 242245Z 14009KT 28/07 A297 RMK A01 T02830067  RH  026%=      5-min Rain = 0
KAMH 242250Z 15009KT 28/06 A297 RMK A01 T02830060  RH  025%=      5-min Rain = 0
KAMH 242255Z 15010KT 28/06 A297 RMK A01 T02810061  RH  025%=      5-min Rain = 0
KAMH 242300Z 15010KT 28/06 A2969 RMK A01 T02790063  RH  026%=      5-min Rain = 0
KAMH 242305Z 15007KT 28/06 A2969 RMK A01 T02770064  RH  027%=      5-min Rain = 0
KAMH 242310Z 14007KT 28/06 A2969 RMK A01 T02760059  RH  026%=      5-min Rain = 0
KAMH 242315Z 13008KT 28/05 A2969 RMK A01 T02750054  RH  025%=      5-min Rain = 0
KAMH 242320Z 12010G15KT 28/05 A297 RMK A01 T02750050  RH  024%=      5-min Rain = 0
KAMH 242325Z 12012KT 27/05 A297 RMK A01 T02740045  RH  023%=      5-min Rain = 0
KAMH 242330Z 12010KT 27/04 A2969 RMK A01 T02720044  RH  024%=      5-min Rain = 0
KAMH 242335Z 13009KT 27/04 A2969 RMK A01 T02700039  RH  023%=      5-min Rain = 0
KAMH 242340Z 13008KT 27/04 A2969 RMK A01 T02700037  RH  023%=      5-min Rain = 0
KAMH 242345Z 13007KT 27/04 A2969 RMK A01 T02690036  RH  023%=      5-min Rain = 0
KAMH 242350Z 12007KT 27/04 A2969 RMK A01 T02710036  RH  023%=      5-min Rain = 0
KAMH 242355Z 10009G14KT 27/04 A297 RMK A01 T02730041  RH  023%=      5-min Rain = 0
KAMH 250000Z 10017G27KT 28/04 A2969 RMK A01 T02770042  RH  023%=      5-min Rain = 0
KAMH 250005Z 11019G26KT 27/05 A2969 RMK A01 T02700050  RH  025%=      5-min Rain = 0
KAMH 250010Z 10017G22KT 26/06 A2968 RMK A01 T02640055  RH  027%=      5-min Rain = 0
KAMH 250015Z 12015G20KT 27/05 A2969 RMK A01 T02650054  RH  026%=      5-min Rain = 0
KAMH 250020Z 11015G20KT 26/05 A2969 RMK A01 T02610054  RH  027%=      5-min Rain = 0
KAMH 250025Z 11018G25KT 26/05 A2969 RMK A01 T02560054  RH  028%=      5-min Rain = 0
KAMH 250030Z 11018G24KT 25/06 A2969 RMK A01 T02490059  RH  030%=      5-min Rain = 0
KAMH 250035Z 11017KT 25/06 A2969 RMK A01 T02460055  RH  030%=      5-min Rain = 0
KAMH 250040Z 11016G21KT 25/05 A2968 RMK A01 T02460049  RH  029%=      5-min Rain = 0
KAMH 250045Z 11014KT 25/05 A2968 RMK A01 T02470047  RH  028%=      5-min Rain = 0
KAMH 250050Z 11015KT 25/04 A2968 RMK A01 T02460042  RH  027%=      5-min Rain = 0
KAMH 250055Z 11014KT 25/04 A2967 RMK A01 T02460040  RH  027%=      5-min Rain = 0
KAMH 250100Z 11011KT 24/04 A2967 RMK A01 T02440038  RH  027%=      5-min Rain = 0
KAMH 250105Z 12010KT 24/04 A2966 RMK A01 T02430037  RH  027%=      5-min Rain = 0
KAMH 250110Z 12007KT 24/04 A2966 RMK A01 T02420039  RH  027%=      5-min Rain = 0
KAMH 250115Z 12008KT 24/04 A2966 RMK A01 T02420039  RH  027%=      5-min Rain = 0
KAMH 250120Z 11009KT 24/04 A2966 RMK A01 T02430042  RH  028%=      5-min Rain = 0
KAMH 250125Z 11009KT 24/05 A2966 RMK A01 T02420045  RH  028%=      5-min Rain = 0
KAMH 250130Z 12010KT 24/04 A2967 RMK A01 T02410044  RH  028%=      5-min Rain = 0
KAMH 250135Z 12011KT 24/04 A2968 RMK A01 T02410043  RH  028%=      5-min Rain = 0
KAMH 250140Z 12010G15KT 24/04 A2969 RMK A01 T02420040  RH  027%=      5-min Rain = 0
KAMH 250145Z 13009KT 24/04 A2969 RMK A01 T02400040  RH  028%=      5-min Rain = 0
KAMH 250150Z 12010KT 24/04 A297 RMK A01 T02380039  RH  028%=      5-min Rain = 0
KAMH 250155Z 11010KT 24/04 A297 RMK A01 T02390039  RH  028%=      5-min Rain = 0
KAMH 250200Z 13008KT 24/04 A297 RMK A01 T02380036  RH  027%=      5-min Rain = 0
KAMH 250205Z 12008KT 23/04 A297 RMK A01 T02340035  RH  028%=      5-min Rain = 0
KAMH 250210Z 14007KT 23/03 A297 RMK A01 T02320034  RH  028%=      5-min Rain = 0
KAMH 250215Z 15008KT 22/04 A297 RMK A01 T02230035  RH  030%=      5-min Rain = 0
KAMH 250220Z 16009KT 22/04 A2971 RMK A01 T02220039  RH  031%=      5-min Rain = 0
KAMH 250225Z 17009KT 22/04 A2971 RMK A01 T02230042  RH  031%=      5-min Rain = 0
KAMH 250230Z 16010KT 22/05 A2972 RMK A01 T02180054  RH  035%=      5-min Rain = 0
KAMH 250235Z 16010KT 22/06 A2972 RMK A01 T02150064  RH  039%=      5-min Rain = 0
KAMH 250240Z 15015G24KT 21/07 A2974 RMK A01 T02120070  RH  041%=      5-min Rain = 0
KAMH 250245Z 14016G22KT 21/08 A2974 RMK A01 T02110079  RH  044%=      5-min Rain = 0
KAMH 250250Z 14014G19KT 21/08 A2973 RMK A01 T02070081  RH  045%=      5-min Rain = 0
KAMH 250255Z 14013G18KT 21/08 A2973 RMK A01 T02050079  RH  045%=      5-min Rain = 0
KAMH 250300Z 14014KT 20/08 A2973 RMK A01 T02040077  RH  045%=      5-min Rain = 0
KAMH 250305Z 14013KT 20/08 A2972 RMK A01 T02030076  RH  045%=      5-min Rain = 0
KAMH 250310Z 14013G18KT 20/08 A2972 RMK A01 T02020075  RH  045%=      5-min Rain = 0
KAMH 250315Z 14013G18KT 20/08 A2972 RMK A01 T02020075  RH  045%=      5-min Rain = 0
KAMH 250320Z 14013G21KT 20/08 A2971 RMK A01 T02000076  RH  046%=      5-min Rain = 0
KAMH 250325Z 14013KT 20/08 A2971 RMK A01 T01980078  RH  047%=      5-min Rain = 0
KAMH 250330Z 13013KT 20/08 A2971 RMK A01 T01960080  RH  048%=      5-min Rain = 0
KAMH 250335Z 13013G18KT 19/08 A2972 RMK A01 T01940081  RH  049%=      5-min Rain = 0
KAMH 250340Z 13013KT 19/08 A2972 RMK A01 T01930081  RH  050%=      5-min Rain = 0
KAMH 250345Z 12014G19KT 19/08 A2972 RMK A01 T01930081  RH  050%=      5-min Rain = 0
KAMH 250350Z 12012KT 19/08 A2972 RMK A01 T01920081  RH  050%=      5-min Rain = 0
KAMH 250355Z 12012KT 19/08 A2972 RMK A01 T01920081  RH  050%=      5-min Rain = 0
KAMH 250400Z 12011KT 19/08 A2972 RMK A01 T01910080  RH  050%=      5-min Rain = 0
KAMH 250405Z 12010KT 19/08 A2972 RMK A01 T01910080  RH  050%=      5-min Rain = 0
KAMH 250410Z 12010KT 19/08 A2972 RMK A01 T01900079  RH  050%=      5-min Rain = 0
KAMH 250415Z 13010KT 19/08 A2973 RMK A01 T01890079  RH  050%=      5-min Rain = 0
KAMH 250420Z 12010KT 19/08 A2973 RMK A01 T01870080  RH  051%=      5-min Rain = 0
KAMH 250425Z 12011KT 19/08 A2973 RMK A01 T01870080  RH  051%=      5-min Rain = 0
KAMH 250430Z 12012KT 19/08 A2974 RMK A01 T01870081  RH  052%=      5-min Rain = 0
KAMH 250435Z 12013G18KT 19/08 A2974 RMK A01 T01880082  RH  051%=      5-min Rain = 0
KAMH 250440Z 12013KT 19/08 A2975 RMK A01 T01880083  RH  052%=      5-min Rain = 0
KAMH 250445Z 12014KT 19/09 A2975 RMK A01 T01880085  RH  053%=      5-min Rain = 0
KAMH 250450Z 12018G23KT 19/09 A2976 RMK A01 T01880086  RH  053%=      5-min Rain = 0
KAMH 250455Z 11017G23KT 19/09 A2977 RMK A01 T01880089  RH  054%=      5-min Rain = 0

Page generated in 0.0218 seconds.